Terminal Aerodrome Forecast
Issued by NWS Corpus Christi, TX

Home | Current Version | Previous Version | Text Only | Print | Product List | Glossary On
Versions: 1 2 3 4 5 6 7 8 9 10 11 12 13 14 15 16 17 18 19
000
FTUS44 KCRP 220500
TAFCRP
TAF
KCRP 220527Z 2206/2306 08007KT P6SM FEW020 SCT150
     FM221500 08012KT P6SM SCT030 BKN150
     FM221900 09014G20KT P6SM SCT035
     FM230300 09008KT P6SM SCT025=

USA.gov is the U.S. government's official web portal to all federal, state and local government web resources and services.